sensor_id;sensor_type;location;lat;lon;timestamp;P1;durP1;ratioP1;P2;durP2;ratioP2
10509;SDS011;5303;53.266;10.410;2023-02-15T00:01:38;69.47;;;37.57;;
10509;SDS011;5303;53.266;10.410;2023-02-15T00:04:05;74.53;;;39.70;;
10509;SDS011;5303;53.266;10.410;2023-02-15T00:06:31;70.73;;;36.80;;
10509;SDS011;5303;53.266;10.410;2023-02-15T00:08:57;68.70;;;36.63;;
10509;SDS011;5303;53.266;10.410;2023-02-15T00:11:22;64.07;;;36.17;;
10509;SDS011;5303;53.266;10.410;2023-02-15T00:16:38;68.73;;;37.10;;
10509;SDS011;5303;53.266;10.410;2023-02-15T00:19:05;71.63;;;39.03;;
10509;SDS011;5303;53.266;10.410;2023-02-15T00:21:31;67.80;;;37.83;;
10509;SDS011;5303;53.266;10.410;2023-02-15T00:23:58;70.33;;;38.50;;
10509;SDS011;5303;53.266;10.410;2023-02-15T00:26:24;66.87;;;37.07;;
10509;SDS011;5303;53.266;10.410;2023-02-15T00:28:50;68.07;;;36.57;;
10509;SDS011;5303;53.266;10.410;2023-02-15T00:31:15;67.30;;;36.27;;
10509;SDS011;5303;53.266;10.410;2023-02-15T00:33:41;63.53;;;35.07;;
10509;SDS011;5303;53.266;10.410;2023-02-15T00:36:07;68.70;;;37.17;;
10509;SDS011;5303;53.266;10.410;2023-02-15T00:38:34;59.90;;;35.80;;
10509;SDS011;5303;53.266;10.410;2023-02-15T00:41:01;63.50;;;36.13;;
10509;SDS011;5303;53.266;10.410;2023-02-15T00:43:28;66.37;;;36.57;;
10509;SDS011;5303;53.266;10.410;2023-02-15T00:45:54;62.70;;;35.00;;
10509;SDS011;5303;53.266;10.410;2023-02-15T00:48:20;59.60;;;33.30;;
10509;SDS011;5303;53.266;10.410;2023-02-15T00:50:46;58.03;;;34.67;;
10509;SDS011;5303;53.266;10.410;2023-02-15T00:53:14;59.00;;;34.53;;
10509;SDS011;5303;53.266;10.410;2023-02-15T00:55:40;69.50;;;34.17;;
10509;SDS011;5303;53.266;10.410;2023-02-15T00:58:06;53.70;;;32.60;;
10509;SDS011;5303;53.266;10.410;2023-02-15T01:00:31;73.07;;;32.97;;
10509;SDS011;5303;53.266;10.410;2023-02-15T01:02:57;55.03;;;32.30;;
10509;SDS011;5303;53.266;10.410;2023-02-15T01:05:22;63.57;;;32.10;;
10509;SDS011;5303;53.266;10.410;2023-02-15T01:07:49;95.57;;;33.83;;
10509;SDS011;5303;53.266;10.410;2023-02-15T01:10:15;70.47;;;34.17;;
10509;SDS011;5303;53.266;10.410;2023-02-15T01:12:40;57.50;;;31.20;;
10509;SDS011;5303;53.266;10.410;2023-02-15T01:15:05;51.40;;;30.07;;
10509;SDS011;5303;53.266;10.410;2023-02-15T01:17:31;95.10;;;34.23;;
10509;SDS011;5303;53.266;10.410;2023-02-15T01:19:56;57.23;;;29.77;;
10509;SDS011;5303;53.266;10.410;2023-02-15T01:22:22;81.07;;;33.47;;
10509;SDS011;5303;53.266;10.410;2023-02-15T01:24:48;51.93;;;31.17;;
10509;SDS011;5303;53.266;10.410;2023-02-15T01:27:14;53.23;;;30.40;;
10509;SDS011;5303;53.266;10.410;2023-02-15T01:29:40;49.40;;;29.30;;
10509;SDS011;5303;53.266;10.410;2023-02-15T01:32:05;49.37;;;30.63;;
10509;SDS011;5303;53.266;10.410;2023-02-15T01:34:30;57.13;;;31.13;;
10509;SDS011;5303;53.266;10.410;2023-02-15T01:36:55;51.20;;;30.33;;
10509;SDS011;5303;53.266;10.410;2023-02-15T01:39:21;49.20;;;29.67;;
10509;SDS011;5303;53.266;10.410;2023-02-15T01:41:46;49.47;;;30.40;;
10509;SDS011;5303;53.266;10.410;2023-02-15T01:47:11;44.37;;;28.80;;
10509;SDS011;5303;53.266;10.410;2023-02-15T01:49:41;51.17;;;31.57;;
10509;SDS011;5303;53.266;10.410;2023-02-15T01:52:10;56.37;;;30.23;;
10509;SDS011;5303;53.266;10.410;2023-02-15T01:54:38;83.10;;;34.93;;
10509;SDS011;5303;53.266;10.410;2023-02-15T01:57:09;81.13;;;33.10;;
10509;SDS011;5303;53.266;10.410;2023-02-15T01:59:38;48.93;;;30.03;;
10509;SDS011;5303;53.266;10.410;2023-02-15T02:02:07;51.27;;;30.70;;
10509;SDS011;5303;53.266;10.410;2023-02-15T02:04:40;49.53;;;29.13;;
10509;SDS011;5303;53.266;10.410;2023-02-15T02:07:09;48.87;;;28.00;;
10509;SDS011;5303;53.266;10.410;2023-02-15T02:09:37;53.57;;;31.27;;
10509;SDS011;5303;53.266;10.410;2023-02-15T02:12:02;52.07;;;28.93;;
10509;SDS011;5303;53.266;10.410;2023-02-15T02:14:28;63.87;;;29.27;;
10509;SDS011;5303;53.266;10.410;2023-02-15T02:16:58;85.97;;;30.57;;
10509;SDS011;5303;53.266;10.410;2023-02-15T02:37:09;46.57;;;28.63;;
10509;SDS011;5303;53.266;10.410;2023-02-15T02:39:47;45.83;;;27.67;;
10509;SDS011;5303;53.266;10.410;2023-02-15T02:45:12;52.57;;;30.87;;
10509;SDS011;5303;53.266;10.410;2023-02-15T02:47:48;49.57;;;28.93;;
10509;SDS011;5303;53.266;10.410;2023-02-15T02:50:21;46.03;;;27.03;;
10509;SDS011;5303;53.266;10.410;2023-02-15T02:52:49;49.57;;;29.87;;
10509;SDS011;5303;53.266;10.410;2023-02-15T02:55:21;46.47;;;27.47;;
10509;SDS011;5303;53.266;10.410;2023-02-15T02:58:03;50.87;;;28.20;;
10509;SDS011;5303;53.266;10.410;2023-02-15T03:00:39;48.13;;;27.40;;
10509;SDS011;5303;53.266;10.410;2023-02-15T03:03:11;50.23;;;26.93;;
10509;SDS011;5303;53.266;10.410;2023-02-15T03:05:41;41.83;;;27.13;;
10509;SDS011;5303;53.266;10.410;2023-02-15T03:08:09;53.27;;;27.63;;
10509;SDS011;5303;53.266;10.410;2023-02-15T03:10:46;45.93;;;27.30;;
10509;SDS011;5303;53.266;10.410;2023-02-15T03:13:12;44.47;;;26.60;;
10509;SDS011;5303;53.266;10.410;2023-02-15T03:15:38;44.63;;;26.90;;
10509;SDS011;5303;53.266;10.410;2023-02-15T03:18:26;43.60;;;27.43;;
10509;SDS011;5303;53.266;10.410;2023-02-15T03:20:56;46.80;;;26.53;;
10509;SDS011;5303;53.266;10.410;2023-02-15T03:23:26;44.77;;;25.70;;
10509;SDS011;5303;53.266;10.410;2023-02-15T03:25:55;46.57;;;27.53;;
10509;SDS011;5303;53.266;10.410;2023-02-15T03:28:27;53.20;;;28.47;;
10509;SDS011;5303;53.266;10.410;2023-02-15T03:30:57;40.73;;;25.03;;
10509;SDS011;5303;53.266;10.410;2023-02-15T03:33:25;47.50;;;27.60;;
10509;SDS011;5303;53.266;10.410;2023-02-15T03:35:59;48.10;;;27.83;;
10509;SDS011;5303;53.266;10.410;2023-02-15T03:38:34;58.17;;;29.63;;
10509;SDS011;5303;53.266;10.410;2023-02-15T03:41:05;46.50;;;27.10;;
10509;SDS011;5303;53.266;10.410;2023-02-15T03:49:21;40.47;;;24.83;;
10509;SDS011;5303;53.266;10.410;2023-02-15T03:51:54;42.50;;;25.40;;
10509;SDS011;5303;53.266;10.410;2023-02-15T03:54:24;43.10;;;25.37;;
10509;SDS011;5303;53.266;10.410;2023-02-15T03:57:08;42.13;;;25.00;;
10509;SDS011;5303;53.266;10.410;2023-02-15T03:59:55;44.03;;;24.60;;
10509;SDS011;5303;53.266;10.410;2023-02-15T04:02:49;56.27;;;25.17;;
10509;SDS011;5303;53.266;10.410;2023-02-15T04:05:24;37.63;;;23.77;;
10509;SDS011;5303;53.266;10.410;2023-02-15T04:07:49;36.13;;;23.53;;
10509;SDS011;5303;53.266;10.410;2023-02-15T04:10:14;41.97;;;23.07;;
10509;SDS011;5303;53.266;10.410;2023-02-15T04:12:59;52.60;;;26.70;;
10509;SDS011;5303;53.266;10.410;2023-02-15T04:15:24;38.10;;;23.43;;
10509;SDS011;5303;53.266;10.410;2023-02-15T04:18:08;37.20;;;23.30;;
10509;SDS011;5303;53.266;10.410;2023-02-15T04:20:33;37.23;;;23.97;;
10509;SDS011;5303;53.266;10.410;2023-02-15T04:23:17;35.90;;;22.57;;
10509;SDS011;5303;53.266;10.410;2023-02-15T04:26:04;32.43;;;21.30;;
10509;SDS011;5303;53.266;10.410;2023-02-15T04:28:30;35.47;;;22.43;;
10509;SDS011;5303;53.266;10.410;2023-02-15T04:30:55;37.67;;;22.53;;
10509;SDS011;5303;53.266;10.410;2023-02-15T04:33:21;46.67;;;22.97;;
10509;SDS011;5303;53.266;10.410;2023-02-15T04:35:46;64.10;;;23.87;;
10509;SDS011;5303;53.266;10.410;2023-02-15T04:38:11;33.10;;;21.17;;
10509;SDS011;5303;53.266;10.410;2023-02-15T04:40:36;34.87;;;21.20;;
10509;SDS011;5303;53.266;10.410;2023-02-15T04:43:02;39.93;;;22.43;;
10509;SDS011;5303;53.266;10.410;2023-02-15T04:45:27;48.60;;;23.17;;
10509;SDS011;5303;53.266;10.410;2023-02-15T04:47:52;52.07;;;23.13;;
10509;SDS011;5303;53.266;10.410;2023-02-15T04:50:18;42.27;;;21.27;;
10509;SDS011;5303;53.266;10.410;2023-02-15T04:52:43;43.47;;;21.17;;
10509;SDS011;5303;53.266;10.410;2023-02-15T04:55:08;29.13;;;19.70;;
10509;SDS011;5303;53.266;10.410;2023-02-15T04:57:34;30.50;;;19.53;;
10509;SDS011;5303;53.266;10.410;2023-02-15T04:59:59;29.53;;;19.50;;
10509;SDS011;5303;53.266;10.410;2023-02-15T05:02:24;29.10;;;20.17;;
10509;SDS011;5303;53.266;10.410;2023-02-15T05:04:49;27.57;;;17.77;;
10509;SDS011;5303;53.266;10.410;2023-02-15T05:07:15;31.27;;;19.90;;
10509;SDS011;5303;53.266;10.410;2023-02-15T05:09:40;31.77;;;19.97;;
10509;SDS011;5303;53.266;10.410;2023-02-15T05:12:06;28.37;;;19.03;;
10509;SDS011;5303;53.266;10.410;2023-02-15T05:14:31;39.60;;;20.07;;
10509;SDS011;5303;53.266;10.410;2023-02-15T05:16:56;43.13;;;21.57;;
10509;SDS011;5303;53.266;10.410;2023-02-15T05:19:23;28.33;;;19.23;;
10509;SDS011;5303;53.266;10.410;2023-02-15T05:21:49;30.23;;;19.63;;
10509;SDS011;5303;53.266;10.410;2023-02-15T05:24:14;29.37;;;19.33;;
10509;SDS011;5303;53.266;10.410;2023-02-15T05:26:59;32.27;;;19.77;;
10509;SDS011;5303;53.266;10.410;2023-02-15T05:29:42;31.57;;;20.17;;
10509;SDS011;5303;53.266;10.410;2023-02-15T05:32:08;29.30;;;18.07;;
10509;SDS011;5303;53.266;10.410;2023-02-15T05:34:33;39.50;;;20.77;;
10509;SDS011;5303;53.266;10.410;2023-02-15T05:36:58;28.90;;;19.50;;
10509;SDS011;5303;53.266;10.410;2023-02-15T05:39:24;28.60;;;19.20;;
10509;SDS011;5303;53.266;10.410;2023-02-15T05:41:49;31.87;;;19.47;;
10509;SDS011;5303;53.266;10.410;2023-02-15T05:44:14;45.97;;;20.90;;
10509;SDS011;5303;53.266;10.410;2023-02-15T05:46:40;31.50;;;19.63;;
10509;SDS011;5303;53.266;10.410;2023-02-15T05:49:05;28.67;;;18.00;;
10509;SDS011;5303;53.266;10.410;2023-02-15T05:51:31;34.80;;;19.77;;
10509;SDS011;5303;53.266;10.410;2023-02-15T05:53:56;42.63;;;20.77;;
10509;SDS011;5303;53.266;10.410;2023-02-15T05:56:21;31.50;;;18.77;;
10509;SDS011;5303;53.266;10.410;2023-02-15T05:58:47;30.23;;;19.23;;
10509;SDS011;5303;53.266;10.410;2023-02-15T06:01:14;46.63;;;20.00;;
10509;SDS011;5303;53.266;10.410;2023-02-15T06:03:42;63.33;;;21.90;;
10509;SDS011;5303;53.266;10.410;2023-02-15T06:06:07;29.10;;;19.67;;
10509;SDS011;5303;53.266;10.410;2023-02-15T06:08:33;27.67;;;18.43;;
10509;SDS011;5303;53.266;10.410;2023-02-15T06:11:00;31.93;;;20.13;;
10509;SDS011;5303;53.266;10.410;2023-02-15T06:13:26;40.23;;;21.07;;
10509;SDS011;5303;53.266;10.410;2023-02-15T06:15:51;34.40;;;21.40;;
10509;SDS011;5303;53.266;10.410;2023-02-15T06:18:17;33.20;;;19.97;;
10509;SDS011;5303;53.266;10.410;2023-02-15T06:20:42;30.87;;;20.50;;
10509;SDS011;5303;53.266;10.410;2023-02-15T06:23:10;28.30;;;19.03;;
10509;SDS011;5303;53.266;10.410;2023-02-15T06:25:35;31.23;;;18.70;;
10509;SDS011;5303;53.266;10.410;2023-02-15T06:28:01;29.70;;;19.07;;
10509;SDS011;5303;53.266;10.410;2023-02-15T06:30:26;32.47;;;20.30;;
10509;SDS011;5303;53.266;10.410;2023-02-15T06:32:51;30.60;;;19.43;;
10509;SDS011;5303;53.266;10.410;2023-02-15T06:35:16;34.77;;;20.83;;
10509;SDS011;5303;53.266;10.410;2023-02-15T06:37:42;43.77;;;20.97;;
10509;SDS011;5303;53.266;10.410;2023-02-15T06:40:10;41.53;;;21.47;;
10509;SDS011;5303;53.266;10.410;2023-02-15T06:42:36;44.33;;;21.70;;
10509;SDS011;5303;53.266;10.410;2023-02-15T06:45:01;36.60;;;20.53;;
10509;SDS011;5303;53.266;10.410;2023-02-15T06:47:26;38.53;;;21.17;;
10509;SDS011;5303;53.266;10.410;2023-02-15T06:49:52;45.17;;;22.17;;
10509;SDS011;5303;53.266;10.410;2023-02-15T06:52:17;62.43;;;21.60;;
10509;SDS011;5303;53.266;10.410;2023-02-15T06:54:42;33.37;;;20.93;;
10509;SDS011;5303;53.266;10.410;2023-02-15T06:57:08;64.37;;;23.50;;
10509;SDS011;5303;53.266;10.410;2023-02-15T06:59:34;32.70;;;20.37;;
10509;SDS011;5303;53.266;10.410;2023-02-15T07:01:59;35.77;;;20.53;;
10509;SDS011;5303;53.266;10.410;2023-02-15T07:04:25;70.97;;;22.97;;
10509;SDS011;5303;53.266;10.410;2023-02-15T07:06:50;39.97;;;21.60;;
10509;SDS011;5303;53.266;10.410;2023-02-15T07:09:15;30.37;;;19.80;;
10509;SDS011;5303;53.266;10.410;2023-02-15T07:11:41;36.20;;;20.37;;
10509;SDS011;5303;53.266;10.410;2023-02-15T07:14:25;49.50;;;20.57;;
10509;SDS011;5303;53.266;10.410;2023-02-15T07:16:50;33.33;;;19.63;;
10509;SDS011;5303;53.266;10.410;2023-02-15T07:19:15;32.20;;;19.67;;
10509;SDS011;5303;53.266;10.410;2023-02-15T07:21:41;48.13;;;21.30;;
10509;SDS011;5303;53.266;10.410;2023-02-15T07:24:06;29.60;;;19.33;;
10509;SDS011;5303;53.266;10.410;2023-02-15T07:26:32;30.90;;;20.43;;
10509;SDS011;5303;53.266;10.410;2023-02-15T07:28:57;31.83;;;18.97;;
10509;SDS011;5303;53.266;10.410;2023-02-15T07:31:23;48.13;;;21.03;;
10509;SDS011;5303;53.266;10.410;2023-02-15T07:33:48;31.90;;;20.63;;
10509;SDS011;5303;53.266;10.410;2023-02-15T07:36:13;31.80;;;19.40;;
10509;SDS011;5303;53.266;10.410;2023-02-15T07:38:40;41.07;;;20.33;;
10509;SDS011;5303;53.266;10.410;2023-02-15T07:41:07;29.10;;;18.13;;
10509;SDS011;5303;53.266;10.410;2023-02-15T07:43:34;28.00;;;17.83;;
10509;SDS011;5303;53.266;10.410;2023-02-15T07:46:02;36.97;;;21.53;;
10509;SDS011;5303;53.266;10.410;2023-02-15T07:48:29;33.70;;;19.13;;
10509;SDS011;5303;53.266;10.410;2023-02-15T07:50:58;36.63;;;20.07;;
10509;SDS011;5303;53.266;10.410;2023-02-15T07:53:27;32.30;;;20.03;;
10509;SDS011;5303;53.266;10.410;2023-02-15T07:55:53;33.47;;;19.63;;
10509;SDS011;5303;53.266;10.410;2023-02-15T07:58:18;28.70;;;18.13;;
10509;SDS011;5303;53.266;10.410;2023-02-15T08:00:44;28.70;;;18.90;;
10509;SDS011;5303;53.266;10.410;2023-02-15T08:03:25;28.30;;;17.93;;
10509;SDS011;5303;53.266;10.410;2023-02-15T08:05:57;30.70;;;18.90;;
10509;SDS011;5303;53.266;10.410;2023-02-15T08:08:23;31.00;;;19.53;;
10509;SDS011;5303;53.266;10.410;2023-02-15T08:11:37;27.40;;;18.70;;
10509;SDS011;5303;53.266;10.410;2023-02-15T08:14:24;26.97;;;17.80;;
10509;SDS011;5303;53.266;10.410;2023-02-15T08:16:47;36.13;;;19.70;;
10509;SDS011;5303;53.266;10.410;2023-02-15T08:19:24;29.50;;;18.53;;
10509;SDS011;5303;53.266;10.410;2023-02-15T08:21:55;31.87;;;19.00;;
10509;SDS011;5303;53.266;10.410;2023-02-15T08:24:33;30.30;;;18.60;;
10509;SDS011;5303;53.266;10.410;2023-02-15T08:27:01;30.00;;;19.73;;
10509;SDS011;5303;53.266;10.410;2023-02-15T08:29:30;29.27;;;20.10;;
10509;SDS011;5303;53.266;10.410;2023-02-15T08:32:00;30.87;;;19.53;;
10509;SDS011;5303;53.266;10.410;2023-02-15T08:34:28;31.10;;;21.00;;
10509;SDS011;5303;53.266;10.410;2023-02-15T08:36:56;28.23;;;19.17;;
10509;SDS011;5303;53.266;10.410;2023-02-15T08:39:21;30.37;;;19.53;;
10509;SDS011;5303;53.266;10.410;2023-02-15T08:41:47;28.63;;;18.50;;
10509;SDS011;5303;53.266;10.410;2023-02-15T08:44:13;28.53;;;19.50;;
10509;SDS011;5303;53.266;10.410;2023-02-15T08:46:41;32.37;;;19.53;;
10509;SDS011;5303;53.266;10.410;2023-02-15T08:49:07;28.23;;;19.07;;
10509;SDS011;5303;53.266;10.410;2023-02-15T08:51:34;28.40;;;18.07;;
10509;SDS011;5303;53.266;10.410;2023-02-15T08:54:03;29.10;;;19.60;;
10509;SDS011;5303;53.266;10.410;2023-02-15T08:56:35;29.27;;;19.10;;
10509;SDS011;5303;53.266;10.410;2023-02-15T08:59:02;24.87;;;17.37;;
10509;SDS011;5303;53.266;10.410;2023-02-15T09:01:28;24.27;;;16.77;;
10509;SDS011;5303;53.266;10.410;2023-02-15T09:03:58;25.27;;;18.43;;
10509;SDS011;5303;53.266;10.410;2023-02-15T09:06:25;29.23;;;18.77;;
10509;SDS011;5303;53.266;10.410;2023-02-15T09:08:52;24.50;;;17.37;;
10509;SDS011;5303;53.266;10.410;2023-02-15T09:11:22;23.23;;;16.57;;
10509;SDS011;5303;53.266;10.410;2023-02-15T09:13:58;26.00;;;17.37;;
10509;SDS011;5303;53.266;10.410;2023-02-15T09:16:26;24.00;;;17.43;;
10509;SDS011;5303;53.266;10.410;2023-02-15T09:18:54;23.83;;;17.50;;
10509;SDS011;5303;53.266;10.410;2023-02-15T09:21:21;25.27;;;17.27;;
10509;SDS011;5303;53.266;10.410;2023-02-15T09:23:48;24.13;;;17.70;;
10509;SDS011;5303;53.266;10.410;2023-02-15T09:26:16;28.60;;;18.27;;
10509;SDS011;5303;53.266;10.410;2023-02-15T09:28:43;23.87;;;16.20;;
10509;SDS011;5303;53.266;10.410;2023-02-15T09:31:13;25.83;;;17.53;;
10509;SDS011;5303;53.266;10.410;2023-02-15T09:33:44;24.43;;;17.17;;
10509;SDS011;5303;53.266;10.410;2023-02-15T09:36:17;26.03;;;17.87;;
10509;SDS011;5303;53.266;10.410;2023-02-15T09:38:57;21.43;;;16.23;;
10509;SDS011;5303;53.266;10.410;2023-02-15T09:44:39;25.23;;;17.43;;
10509;SDS011;5303;53.266;10.410;2023-02-15T09:55:38;24.83;;;17.87;;
10509;SDS011;5303;53.266;10.410;2023-02-15T09:58:17;24.37;;;17.23;;
10509;SDS011;5303;53.266;10.410;2023-02-15T10:01:08;23.23;;;16.40;;
10509;SDS011;5303;53.266;10.410;2023-02-15T10:12:24;22.00;;;16.77;;
10509;SDS011;5303;53.266;10.410;2023-02-15T10:23:23;25.70;;;18.70;;
10509;SDS011;5303;53.266;10.410;2023-02-15T10:28:51;22.30;;;16.20;;
10509;SDS011;5303;53.266;10.410;2023-02-15T10:31:26;23.47;;;16.80;;
10509;SDS011;5303;53.266;10.410;2023-02-15T10:34:08;22.83;;;16.00;;
10509;SDS011;5303;53.266;10.410;2023-02-15T10:44:55;23.47;;;17.23;;
10509;SDS011;5303;53.266;10.410;2023-02-15T10:50:19;22.80;;;16.83;;
10509;SDS011;5303;53.266;10.410;2023-02-15T10:52:54;23.30;;;16.63;;
10509;SDS011;5303;53.266;10.410;2023-02-15T10:55:41;23.33;;;16.73;;
10509;SDS011;5303;53.266;10.410;2023-02-15T10:58:38;21.07;;;16.33;;
10509;SDS011;5303;53.266;10.410;2023-02-15T11:06:37;21.37;;;16.73;;
10509;SDS011;5303;53.266;10.410;2023-02-15T11:09:10;22.40;;;17.10;;
10509;SDS011;5303;53.266;10.410;2023-02-15T11:11:38;20.67;;;15.40;;
10509;SDS011;5303;53.266;10.410;2023-02-15T11:14:10;22.00;;;15.30;;
10509;SDS011;5303;53.266;10.410;2023-02-15T11:16:59;21.47;;;16.50;;
10509;SDS011;5303;53.266;10.410;2023-02-15T11:19:33;20.93;;;15.33;;
10509;SDS011;5303;53.266;10.410;2023-02-15T11:22:02;23.23;;;16.70;;
10509;SDS011;5303;53.266;10.410;2023-02-15T11:24:40;24.87;;;17.23;;
10509;SDS011;5303;53.266;10.410;2023-02-15T11:32:41;24.40;;;16.90;;
10509;SDS011;5303;53.266;10.410;2023-02-15T11:42:52;21.97;;;16.33;;
10509;SDS011;5303;53.266;10.410;2023-02-15T11:45:30;22.17;;;17.07;;
10509;SDS011;5303;53.266;10.410;2023-02-15T11:47:59;22.87;;;17.17;;
10509;SDS011;5303;53.266;10.410;2023-02-15T11:50:27;23.37;;;18.00;;
10509;SDS011;5303;53.266;10.410;2023-02-15T11:53:01;23.97;;;17.90;;
10509;SDS011;5303;53.266;10.410;2023-02-15T11:55:30;22.47;;;16.83;;
10509;SDS011;5303;53.266;10.410;2023-02-15T12:00:33;24.40;;;17.47;;
10509;SDS011;5303;53.266;10.410;2023-02-15T12:03:02;24.57;;;17.10;;
10509;SDS011;5303;53.266;10.410;2023-02-15T12:05:36;22.17;;;16.53;;
10509;SDS011;5303;53.266;10.410;2023-02-15T12:08:10;24.43;;;17.37;;
10509;SDS011;5303;53.266;10.410;2023-02-15T12:10:42;23.03;;;16.13;;
10509;SDS011;5303;53.266;10.410;2023-02-15T12:13:17;23.97;;;16.67;;
10509;SDS011;5303;53.266;10.410;2023-02-15T12:15:45;24.43;;;16.67;;
10509;SDS011;5303;53.266;10.410;2023-02-15T12:20:58;18.50;;;15.13;;
10509;SDS011;5303;53.266;10.410;2023-02-15T12:23:30;24.73;;;16.30;;
10509;SDS011;5303;53.266;10.410;2023-02-15T12:25:57;21.63;;;16.63;;
10509;SDS011;5303;53.266;10.410;2023-02-15T12:28:37;20.27;;;15.57;;
10509;SDS011;5303;53.266;10.410;2023-02-15T12:31:17;21.70;;;16.27;;
10509;SDS011;5303;53.266;10.410;2023-02-15T12:33:43;25.73;;;16.97;;
10509;SDS011;5303;53.266;10.410;2023-02-15T12:36:11;22.67;;;17.03;;
10509;SDS011;5303;53.266;10.410;2023-02-15T12:38:42;26.00;;;17.07;;
10509;SDS011;5303;53.266;10.410;2023-02-15T12:41:21;22.93;;;17.57;;
10509;SDS011;5303;53.266;10.410;2023-02-15T12:44:02;21.50;;;16.43;;
10509;SDS011;5303;53.266;10.410;2023-02-15T12:46:41;23.20;;;16.37;;
10509;SDS011;5303;53.266;10.410;2023-02-15T12:51:44;21.10;;;16.00;;
10509;SDS011;5303;53.266;10.410;2023-02-15T12:57:27;19.63;;;15.17;;
10509;SDS011;5303;53.266;10.410;2023-02-15T13:02:33;23.33;;;16.97;;
10509;SDS011;5303;53.266;10.410;2023-02-15T13:05:19;20.37;;;15.27;;
10509;SDS011;5303;53.266;10.410;2023-02-15T13:08:01;22.67;;;16.57;;
10509;SDS011;5303;53.266;10.410;2023-02-15T13:10:40;22.73;;;15.90;;
10509;SDS011;5303;53.266;10.410;2023-02-15T13:13:18;21.50;;;16.10;;
10509;SDS011;5303;53.266;10.410;2023-02-15T13:15:47;21.03;;;15.17;;
10509;SDS011;5303;53.266;10.410;2023-02-15T13:18:16;19.33;;;15.07;;
10509;SDS011;5303;53.266;10.410;2023-02-15T13:20:53;21.60;;;15.93;;
10509;SDS011;5303;53.266;10.410;2023-02-15T13:23:29;20.87;;;15.70;;
10509;SDS011;5303;53.266;10.410;2023-02-15T13:25:57;21.67;;;15.93;;
10509;SDS011;5303;53.266;10.410;2023-02-15T13:28:25;22.70;;;16.10;;
10509;SDS011;5303;53.266;10.410;2023-02-15T13:31:02;20.97;;;15.70;;
10509;SDS011;5303;53.266;10.410;2023-02-15T13:33:31;18.67;;;14.20;;
10509;SDS011;5303;53.266;10.410;2023-02-15T13:41:33;22.53;;;16.77;;
10509;SDS011;5303;53.266;10.410;2023-02-15T13:44:09;21.33;;;15.47;;
10509;SDS011;5303;53.266;10.410;2023-02-15T13:46:48;20.27;;;15.30;;
10509;SDS011;5303;53.266;10.410;2023-02-15T13:49:50;20.00;;;14.90;;
10509;SDS011;5303;53.266;10.410;2023-02-15T13:52:33;19.53;;;15.00;;
10509;SDS011;5303;53.266;10.410;2023-02-15T13:58:32;21.53;;;15.30;;
10509;SDS011;5303;53.266;10.410;2023-02-15T14:04:17;18.27;;;14.27;;
10509;SDS011;5303;53.266;10.410;2023-02-15T14:23:44;19.37;;;15.20;;
10509;SDS011;5303;53.266;10.410;2023-02-15T14:29:12;18.77;;;14.80;;
10509;SDS011;5303;53.266;10.410;2023-02-15T14:31:51;19.97;;;15.20;;
10509;SDS011;5303;53.266;10.410;2023-02-15T14:34:30;21.57;;;16.10;;
10509;SDS011;5303;53.266;10.410;2023-02-15T14:37:10;22.40;;;16.60;;
10509;SDS011;5303;53.266;10.410;2023-02-15T14:39:44;22.70;;;16.30;;
10509;SDS011;5303;53.266;10.410;2023-02-15T14:48:28;21.57;;;16.57;;
10509;SDS011;5303;53.266;10.410;2023-02-15T14:50:58;21.30;;;16.80;;
10509;SDS011;5303;53.266;10.410;2023-02-15T14:58:32;21.23;;;17.00;;
10509;SDS011;5303;53.266;10.410;2023-02-15T15:01:05;21.73;;;17.03;;
10509;SDS011;5303;53.266;10.410;2023-02-15T15:03:32;23.23;;;16.37;;
10509;SDS011;5303;53.266;10.410;2023-02-15T15:05:58;21.40;;;16.47;;
10509;SDS011;5303;53.266;10.410;2023-02-15T15:08:29;25.30;;;18.83;;
10509;SDS011;5303;53.266;10.410;2023-02-15T15:11:46;22.17;;;16.80;;
10509;SDS011;5303;53.266;10.410;2023-02-15T15:13:55;20.93;;;16.67;;
10509;SDS011;5303;53.266;10.410;2023-02-15T15:19:03;26.10;;;18.93;;
10509;SDS011;5303;53.266;10.410;2023-02-15T15:24:45;22.83;;;16.63;;
10509;SDS011;5303;53.266;10.410;2023-02-15T15:49:28;25.17;;;18.20;;
10509;SDS011;5303;53.266;10.410;2023-02-15T15:51:56;25.77;;;19.10;;
10509;SDS011;5303;53.266;10.410;2023-02-15T15:54:25;25.63;;;17.87;;
10509;SDS011;5303;53.266;10.410;2023-02-15T15:56:55;21.30;;;15.83;;
10509;SDS011;5303;53.266;10.410;2023-02-15T15:59:31;24.23;;;16.60;;
10509;SDS011;5303;53.266;10.410;2023-02-15T16:02:10;23.03;;;17.23;;
10509;SDS011;5303;53.266;10.410;2023-02-15T16:04:42;22.80;;;16.23;;
10509;SDS011;5303;53.266;10.410;2023-02-15T16:10:04;22.73;;;16.43;;
10509;SDS011;5303;53.266;10.410;2023-02-15T16:12:33;22.77;;;16.00;;
10509;SDS011;5303;53.266;10.410;2023-02-15T16:15:16;20.03;;;15.17;;
10509;SDS011;5303;53.266;10.410;2023-02-15T16:17:52;21.40;;;15.20;;
10509;SDS011;5303;53.266;10.410;2023-02-15T16:20:25;22.40;;;15.97;;
10509;SDS011;5303;53.266;10.410;2023-02-15T16:26:09;21.70;;;15.37;;
10509;SDS011;5303;53.266;10.410;2023-02-15T16:28:49;21.10;;;15.50;;
10509;SDS011;5303;53.266;10.410;2023-02-15T16:31:19;23.67;;;16.60;;
10509;SDS011;5303;53.266;10.410;2023-02-15T16:33:47;25.80;;;18.43;;
10509;SDS011;5303;53.266;10.410;2023-02-15T16:36:26;26.30;;;18.87;;
10509;SDS011;5303;53.266;10.410;2023-02-15T16:41:25;26.90;;;18.10;;
10509;SDS011;5303;53.266;10.410;2023-02-15T16:43:56;24.47;;;18.13;;
10509;SDS011;5303;53.266;10.410;2023-02-15T16:46:43;25.87;;;18.67;;
10509;SDS011;5303;53.266;10.410;2023-02-15T16:49:17;23.63;;;17.50;;
10509;SDS011;5303;53.266;10.410;2023-02-15T16:51:45;25.17;;;17.43;;
10509;SDS011;5303;53.266;10.410;2023-02-15T16:54:21;24.10;;;16.83;;
10509;SDS011;5303;53.266;10.410;2023-02-15T16:56:47;25.03;;;17.17;;
10509;SDS011;5303;53.266;10.410;2023-02-15T16:59:21;25.33;;;17.33;;
10509;SDS011;5303;53.266;10.410;2023-02-15T17:01:52;26.17;;;17.97;;
10509;SDS011;5303;53.266;10.410;2023-02-15T17:09:24;32.30;;;22.53;;
10509;SDS011;5303;53.266;10.410;2023-02-15T17:11:50;37.77;;;24.20;;
10509;SDS011;5303;53.266;10.410;2023-02-15T17:14:19;34.37;;;23.57;;
10509;SDS011;5303;53.266;10.410;2023-02-15T17:16:59;33.27;;;22.90;;
10509;SDS011;5303;53.266;10.410;2023-02-15T17:19:49;32.43;;;22.73;;
10509;SDS011;5303;53.266;10.410;2023-02-15T17:22:21;27.07;;;19.77;;
10509;SDS011;5303;53.266;10.410;2023-02-15T17:24:48;28.93;;;20.33;;
10509;SDS011;5303;53.266;10.410;2023-02-15T17:27:23;27.63;;;19.70;;
10509;SDS011;5303;53.266;10.410;2023-02-15T17:29:51;27.33;;;18.93;;
10509;SDS011;5303;53.266;10.410;2023-02-15T17:32:25;32.63;;;20.70;;
10509;SDS011;5303;53.266;10.410;2023-02-15T17:35:06;30.83;;;20.20;;
10509;SDS011;5303;53.266;10.410;2023-02-15T17:40:10;39.80;;;28.70;;
10509;SDS011;5303;53.266;10.410;2023-02-15T17:42:43;39.20;;;28.03;;
10509;SDS011;5303;53.266;10.410;2023-02-15T17:45:08;38.93;;;29.60;;
10509;SDS011;5303;53.266;10.410;2023-02-15T17:47:34;43.00;;;30.00;;
10509;SDS011;5303;53.266;10.410;2023-02-15T17:49:59;41.23;;;30.63;;
10509;SDS011;5303;53.266;10.410;2023-02-15T17:52:28;45.60;;;31.60;;
10509;SDS011;5303;53.266;10.410;2023-02-15T17:54:55;38.87;;;28.80;;